sensor_id;sensor_type;location;lat;lon;timestamp;pressure;altitude;pressure_sealevel;temperature;humidity
15674;BME280;7937;48.090;16.212;2023-03-02T00:01:35;98276.78;;;3.99;66.17
15674;BME280;7937;48.090;16.212;2023-03-02T00:07:46;98218.97;;;3.61;66.42
15674;BME280;7937;48.090;16.212;2023-03-02T00:10:48;98251.31;;;3.70;66.65
15674;BME280;7937;48.090;16.212;2023-03-02T00:13:50;98274.34;;;3.82;66.78
15674;BME280;7937;48.090;16.212;2023-03-02T00:16:52;98237.22;;;3.62;66.73
15674;BME280;7937;48.090;16.212;2023-03-02T00:19:55;98273.19;;;3.85;66.65
15674;BME280;7937;48.090;16.212;2023-03-02T00:23:12;98278.81;;;3.82;66.65
15674;BME280;7937;48.090;16.212;2023-03-02T00:26:14;98214.88;;;3.44;66.51
15674;BME280;7937;48.090;16.212;2023-03-02T00:29:16;98289.72;;;3.79;66.20
15674;BME280;7937;48.090;16.212;2023-03-02T00:32:18;98267.00;;;3.78;66.11
15674;BME280;7937;48.090;16.212;2023-03-02T00:35:20;98271.09;;;3.80;65.95
15674;BME280;7937;48.090;16.212;2023-03-02T00:38:22;98252.47;;;3.82;65.96
15674;BME280;7937;48.090;16.212;2023-03-02T00:41:25;98212.16;;;3.52;66.07
15674;BME280;7937;48.090;16.212;2023-03-02T00:44:27;98268.88;;;3.84;66.28
15674;BME280;7937;48.090;16.212;2023-03-02T00:47:33;98254.19;;;3.90;65.67
15674;BME280;7937;48.090;16.212;2023-03-02T00:50:36;98233.41;;;3.80;65.73
15674;BME280;7937;48.090;16.212;2023-03-02T00:53:41;98227.66;;;3.76;65.62
15674;BME280;7937;48.090;16.212;2023-03-02T00:56:43;98249.28;;;3.86;65.46
15674;BME280;7937;48.090;16.212;2023-03-02T00:59:46;98241.16;;;3.88;65.65
15674;BME280;7937;48.090;16.212;2023-03-02T01:02:58;98201.00;;;3.65;65.40
15674;BME280;7937;48.090;16.212;2023-03-02T01:06:01;98233.56;;;3.78;65.77
15674;BME280;7937;48.090;16.212;2023-03-02T01:09:03;98230.91;;;3.78;66.11
15674;BME280;7937;48.090;16.212;2023-03-02T01:12:06;98232.19;;;3.82;65.92
15674;BME280;7937;48.090;16.212;2023-03-02T01:15:11;98227.94;;;3.81;65.98
15674;BME280;7937;48.090;16.212;2023-03-02T01:18:13;98151.53;;;3.45;66.06
15674;BME280;7937;48.090;16.212;2023-03-02T01:21:15;98209.28;;;3.83;66.07
15674;BME280;7937;48.090;16.212;2023-03-02T01:24:17;98208.84;;;3.79;65.99
15674;BME280;7937;48.090;16.212;2023-03-02T01:27:19;98205.78;;;3.76;65.82
15674;BME280;7937;48.090;16.212;2023-03-02T01:30:21;98203.13;;;3.76;65.73
15674;BME280;7937;48.090;16.212;2023-03-02T01:33:23;98200.97;;;3.79;66.01
15674;BME280;7937;48.090;16.212;2023-03-02T01:36:25;98151.38;;;3.53;65.53
15674;BME280;7937;48.090;16.212;2023-03-02T01:39:27;98193.88;;;3.80;65.67
15674;BME280;7937;48.090;16.212;2023-03-02T01:42:35;98195.03;;;3.77;65.21
15674;BME280;7937;48.090;16.212;2023-03-02T01:45:50;98163.00;;;3.59;64.68
15674;BME280;7937;48.090;16.212;2023-03-02T01:49:11;98173.78;;;3.64;65.26
15674;BME280;7937;48.090;16.212;2023-03-02T01:52:32;98183.88;;;3.75;65.32
15674;BME280;7937;48.090;16.212;2023-03-02T01:55:40;98178.34;;;3.70;65.32
15674;BME280;7937;48.090;16.212;2023-03-02T01:58:46;98184.34;;;3.64;65.56
15674;BME280;7937;48.090;16.212;2023-03-02T02:01:52;98182.72;;;3.63;65.89
15674;BME280;7937;48.090;16.212;2023-03-02T02:04:55;98183.09;;;3.60;65.71
15674;BME280;7937;48.090;16.212;2023-03-02T02:07:58;98125.13;;;3.24;66.10
15674;BME280;7937;48.090;16.212;2023-03-02T02:11:00;98049.03;;;2.78;65.82
15674;BME280;7937;48.090;16.212;2023-03-02T02:14:02;98180.06;;;3.63;66.06
15674;BME280;7937;48.090;16.212;2023-03-02T02:17:04;98134.00;;;3.38;65.55
15674;BME280;7937;48.090;16.212;2023-03-02T02:20:18;98171.34;;;3.62;65.28
15674;BME280;7937;48.090;16.212;2023-03-02T02:26:32;98155.38;;;3.49;66.00
15674;BME280;7937;48.090;16.212;2023-03-02T02:29:46;98167.47;;;3.58;65.77
15674;BME280;7937;48.090;16.212;2023-03-02T02:32:51;98162.38;;;3.57;66.17
15674;BME280;7937;48.090;16.212;2023-03-02T02:36:01;98166.94;;;3.48;65.81
15674;BME280;7937;48.090;16.212;2023-03-02T02:39:06;98170.22;;;3.50;66.06
15674;BME280;7937;48.090;16.212;2023-03-02T02:42:20;98133.66;;;3.26;65.58
15674;BME280;7937;48.090;16.212;2023-03-02T02:45:25;98170.03;;;3.52;65.43
15674;BME280;7937;48.090;16.212;2023-03-02T02:48:30;98174.66;;;3.50;65.90
15674;BME280;7937;48.090;16.212;2023-03-02T02:51:33;98166.47;;;3.45;65.58
15674;BME280;7937;48.090;16.212;2023-03-02T02:54:36;98170.84;;;3.38;65.95
15674;BME280;7937;48.090;16.212;2023-03-02T02:57:40;98165.06;;;3.27;66.17
15674;BME280;7937;48.090;16.212;2023-03-02T03:00:42;98160.25;;;3.16;66.37
15674;BME280;7937;48.090;16.212;2023-03-02T03:03:49;98151.72;;;2.99;65.69
15674;BME280;7937;48.090;16.212;2023-03-02T03:10:30;98172.34;;;2.81;65.70
15674;BME280;7937;48.090;16.212;2023-03-02T03:13:37;98170.47;;;2.52;66.18
15674;BME280;7937;48.090;16.212;2023-03-02T03:16:42;98163.19;;;2.39;65.76
15674;BME280;7937;48.090;16.212;2023-03-02T03:19:46;98176.56;;;2.29;65.60
15674;BME280;7937;48.090;16.212;2023-03-02T03:22:49;98163.56;;;2.13;65.20
15674;BME280;7937;48.090;16.212;2023-03-02T03:25:55;98167.47;;;1.94;65.53
15674;BME280;7937;48.090;16.212;2023-03-02T03:28:57;98119.72;;;1.37;65.68
15674;BME280;7937;48.090;16.212;2023-03-02T03:32:00;98172.78;;;1.55;66.05
15674;BME280;7937;48.090;16.212;2023-03-02T03:35:03;98177.13;;;1.40;66.14
15674;BME280;7937;48.090;16.212;2023-03-02T03:38:09;98167.75;;;1.06;66.63
15674;BME280;7937;48.090;16.212;2023-03-02T03:41:12;98184.13;;;1.08;66.72
15674;BME280;7937;48.090;16.212;2023-03-02T03:44:14;98179.06;;;0.98;66.76
15674;BME280;7937;48.090;16.212;2023-03-02T03:47:17;98142.09;;;0.69;67.04
15674;BME280;7937;48.090;16.212;2023-03-02T03:50:20;98184.38;;;0.82;67.33
15674;BME280;7937;48.090;16.212;2023-03-02T03:53:22;98187.34;;;0.79;67.45
15674;BME280;7937;48.090;16.212;2023-03-02T03:56:29;98128.59;;;0.41;67.66
15674;BME280;7937;48.090;16.212;2023-03-02T03:59:32;98173.25;;;0.64;67.80
15674;BME280;7937;48.090;16.212;2023-03-02T04:02:36;98171.16;;;0.59;67.79
15674;BME280;7937;48.090;16.212;2023-03-02T04:05:39;98168.84;;;0.56;68.00
15674;BME280;7937;48.090;16.212;2023-03-02T04:08:41;98164.94;;;0.52;68.08
15674;BME280;7937;48.090;16.212;2023-03-02T04:11:45;98162.97;;;0.46;68.05
15674;BME280;7937;48.090;16.212;2023-03-02T04:14:48;98156.91;;;0.37;68.49
15674;BME280;7937;48.090;16.212;2023-03-02T04:17:51;98163.00;;;0.30;68.76
15674;BME280;7937;48.090;16.212;2023-03-02T04:20:55;98159.72;;;0.28;68.18
15674;BME280;7937;48.090;16.212;2023-03-02T04:23:57;98156.44;;;0.25;68.37
15674;BME280;7937;48.090;16.212;2023-03-02T04:26:59;98159.22;;;0.24;68.31
15674;BME280;7937;48.090;16.212;2023-03-02T04:30:02;98158.88;;;0.19;68.60
15674;BME280;7937;48.090;16.212;2023-03-02T04:33:04;98156.75;;;0.14;68.56
15674;BME280;7937;48.090;16.212;2023-03-02T04:36:08;98102.44;;;-0.24;68.25
15674;BME280;7937;48.090;16.212;2023-03-02T04:39:13;98152.34;;;0.07;68.21
15674;BME280;7937;48.090;16.212;2023-03-02T04:42:19;98091.13;;;-0.33;68.07
15674;BME280;7937;48.090;16.212;2023-03-02T04:45:21;98160.22;;;0.07;68.09
15674;BME280;7937;48.090;16.212;2023-03-02T04:48:23;98139.91;;;-0.08;68.19
15674;BME280;7937;48.090;16.212;2023-03-02T04:51:32;98159.53;;;0.05;67.99
15674;BME280;7937;48.090;16.212;2023-03-02T04:54:34;98162.00;;;-0.02;67.78
15674;BME280;7937;48.090;16.212;2023-03-02T04:57:36;98160.03;;;-0.08;67.94
15674;BME280;7937;48.090;16.212;2023-03-02T05:00:38;98161.34;;;-0.12;67.67
15674;BME280;7937;48.090;16.212;2023-03-02T05:03:40;98161.81;;;-0.17;67.68
15674;BME280;7937;48.090;16.212;2023-03-02T05:06:42;98171.31;;;-0.16;67.62
15674;BME280;7937;48.090;16.212;2023-03-02T05:09:44;98124.47;;;-0.52;67.77
15674;BME280;7937;48.090;16.212;2023-03-02T05:12:46;98130.34;;;-0.58;68.34
15674;BME280;7937;48.090;16.212;2023-03-02T05:16:05;98172.28;;;-0.33;68.42
15674;BME280;7937;48.090;16.212;2023-03-02T05:19:09;98172.75;;;-0.38;68.62
15674;BME280;7937;48.090;16.212;2023-03-02T05:22:11;98169.31;;;-0.38;68.87
15674;BME280;7937;48.090;16.212;2023-03-02T05:25:13;98159.97;;;-0.41;68.39
15674;BME280;7937;48.090;16.212;2023-03-02T05:28:16;98159.63;;;-0.46;68.27
15674;BME280;7937;48.090;16.212;2023-03-02T05:31:27;98158.31;;;-0.50;68.45
15674;BME280;7937;48.090;16.212;2023-03-02T05:34:30;98153.25;;;-0.52;68.77
15674;BME280;7937;48.090;16.212;2023-03-02T05:37:32;98095.09;;;-0.88;68.82
15674;BME280;7937;48.090;16.212;2023-03-02T05:40:35;98091.00;;;-0.90;68.82
15674;BME280;7937;48.090;16.212;2023-03-02T05:43:38;98151.63;;;-0.53;68.59
15674;BME280;7937;48.090;16.212;2023-03-02T05:46:40;98149.47;;;-0.57;69.08
15674;BME280;7937;48.090;16.212;2023-03-02T05:49:42;98152.72;;;-0.55;69.01
15674;BME280;7937;48.090;16.212;2023-03-02T05:52:44;98150.78;;;-0.53;68.97
15674;BME280;7937;48.090;16.212;2023-03-02T05:55:47;98156.38;;;-0.48;68.86
15674;BME280;7937;48.090;16.212;2023-03-02T05:58:49;98170.44;;;-0.49;68.81
15674;BME280;7937;48.090;16.212;2023-03-02T06:01:51;98157.00;;;-0.46;69.03
15674;BME280;7937;48.090;16.212;2023-03-02T06:04:59;98164.22;;;-0.40;68.98
15674;BME280;7937;48.090;16.212;2023-03-02T06:08:02;98168.16;;;-0.36;68.89
15674;BME280;7937;48.090;16.212;2023-03-02T06:11:04;98174.22;;;-0.35;69.01
15674;BME280;7937;48.090;16.212;2023-03-02T06:14:06;98177.81;;;-0.36;68.89
15674;BME280;7937;48.090;16.212;2023-03-02T06:17:08;98172.41;;;-0.35;68.63
15674;BME280;7937;48.090;16.212;2023-03-02T06:20:12;98174.41;;;-0.29;68.58
15674;BME280;7937;48.090;16.212;2023-03-02T06:23:14;98175.72;;;-0.24;68.94
15674;BME280;7937;48.090;16.212;2023-03-02T06:26:17;98178.19;;;-0.23;69.15
15674;BME280;7937;48.090;16.212;2023-03-02T06:29:20;98139.72;;;-0.39;68.96
15674;BME280;7937;48.090;16.212;2023-03-02T06:32:22;98175.91;;;-0.10;68.83
15674;BME280;7937;48.090;16.212;2023-03-02T06:35:24;98183.25;;;-0.05;69.22
15674;BME280;7937;48.090;16.212;2023-03-02T06:38:26;98178.69;;;-0.03;69.28
15674;BME280;7937;48.090;16.212;2023-03-02T06:41:28;98182.16;;;0.06;68.96
15674;BME280;7937;48.090;16.212;2023-03-02T06:44:30;98114.69;;;-0.33;69.01
15674;BME280;7937;48.090;16.212;2023-03-02T06:47:33;98190.66;;;0.24;68.62
15674;BME280;7937;48.090;16.212;2023-03-02T06:50:35;98182.16;;;0.30;68.57
15674;BME280;7937;48.090;16.212;2023-03-02T06:53:37;98186.06;;;0.34;68.58
15674;BME280;7937;48.090;16.212;2023-03-02T06:56:39;98191.47;;;0.41;68.49
15674;BME280;7937;48.090;16.212;2023-03-02T06:59:41;98182.31;;;0.45;68.88
15674;BME280;7937;48.090;16.212;2023-03-02T07:02:43;98184.94;;;0.45;68.67
15674;BME280;7937;48.090;16.212;2023-03-02T07:05:45;98190.81;;;0.55;68.93
15674;BME280;7937;48.090;16.212;2023-03-02T07:08:49;98185.56;;;0.55;68.73
15674;BME280;7937;48.090;16.212;2023-03-02T07:11:51;98190.66;;;0.65;68.56
15674;BME280;7937;48.090;16.212;2023-03-02T07:14:53;98195.84;;;0.73;68.39
15674;BME280;7937;48.090;16.212;2023-03-02T07:17:55;98133.97;;;0.47;68.38
15674;BME280;7937;48.090;16.212;2023-03-02T07:20:57;98162.28;;;0.68;68.43
15674;BME280;7937;48.090;16.212;2023-03-02T07:23:59;98186.94;;;0.98;68.18
15674;BME280;7937;48.090;16.212;2023-03-02T07:27:01;98191.19;;;1.08;67.76
15674;BME280;7937;48.090;16.212;2023-03-02T07:30:04;98188.38;;;1.17;68.23
15674;BME280;7937;48.090;16.212;2023-03-02T07:33:06;98192.28;;;1.29;67.55
15674;BME280;7937;48.090;16.212;2023-03-02T07:36:08;98185.50;;;1.43;67.21
15674;BME280;7937;48.090;16.212;2023-03-02T07:39:10;98189.38;;;1.55;66.94
15674;BME280;7937;48.090;16.212;2023-03-02T07:42:12;98182.91;;;1.66;67.38
15674;BME280;7937;48.090;16.212;2023-03-02T07:45:18;98123.47;;;1.42;66.68
15674;BME280;7937;48.090;16.212;2023-03-02T07:48:22;98184.56;;;1.90;66.88
15674;BME280;7937;48.090;16.212;2023-03-02T07:51:25;98142.00;;;1.72;66.58
15674;BME280;7937;48.090;16.212;2023-03-02T07:54:27;98179.09;;;2.00;66.77
15674;BME280;7937;48.090;16.212;2023-03-02T07:57:31;98131.56;;;1.87;67.00
15674;BME280;7937;48.090;16.212;2023-03-02T08:00:33;98174.69;;;2.38;66.75
15674;BME280;7937;48.090;16.212;2023-03-02T08:03:37;98129.31;;;2.21;66.39
15674;BME280;7937;48.090;16.212;2023-03-02T08:06:39;98135.13;;;2.31;66.24
15674;BME280;7937;48.090;16.212;2023-03-02T08:09:43;98002.47;;;1.75;65.89
15674;BME280;7937;48.090;16.212;2023-03-02T08:12:45;98133.69;;;2.96;64.90
15674;BME280;7937;48.090;16.212;2023-03-02T08:15:47;98147.94;;;3.53;63.72
15674;BME280;7937;48.090;16.212;2023-03-02T08:18:49;98135.91;;;4.51;62.87
15674;BME280;7937;48.090;16.212;2023-03-02T08:21:51;98148.72;;;8.70;52.13
15674;BME280;7937;48.090;16.212;2023-03-02T08:24:53;98169.38;;;12.70;43.14
15674;BME280;7937;48.090;16.212;2023-03-02T08:27:55;98169.31;;;15.89;35.15
15674;BME280;7937;48.090;16.212;2023-03-02T08:30:58;98169.91;;;18.14;30.73
15674;BME280;7937;48.090;16.212;2023-03-02T08:34:01;98163.91;;;19.48;27.48
15674;BME280;7937;48.090;16.212;2023-03-02T08:37:03;98164.00;;;20.10;26.51
15674;BME280;7937;48.090;16.212;2023-03-02T08:40:05;98148.88;;;18.11;28.59
15674;BME280;7937;48.090;16.212;2023-03-02T08:43:07;98165.28;;;15.86;31.79
15674;BME280;7937;48.090;16.212;2023-03-02T08:46:11;98158.25;;;14.21;35.38
15674;BME280;7937;48.090;16.212;2023-03-02T08:49:15;98159.50;;;14.13;35.17
15674;BME280;7937;48.090;16.212;2023-03-02T08:52:17;98101.56;;;13.31;35.44
15674;BME280;7937;48.090;16.212;2023-03-02T08:55:19;98159.19;;;12.50;36.35
15674;BME280;7937;48.090;16.212;2023-03-02T08:58:21;98155.88;;;11.45;38.91
15674;BME280;7937;48.090;16.212;2023-03-02T09:01:26;98151.31;;;10.70;40.67
15674;BME280;7937;48.090;16.212;2023-03-02T09:04:33;98140.25;;;10.01;42.51
15674;BME280;7937;48.090;16.212;2023-03-02T09:07:36;98149.19;;;9.77;42.91
15674;BME280;7937;48.090;16.212;2023-03-02T09:10:38;98134.75;;;9.36;43.59
15674;BME280;7937;48.090;16.212;2023-03-02T09:13:40;98139.19;;;9.24;42.35
15674;BME280;7937;48.090;16.212;2023-03-02T09:16:42;98141.84;;;9.24;42.08
15674;BME280;7937;48.090;16.212;2023-03-02T09:19:46;98137.13;;;9.08;43.01
15674;BME280;7937;48.090;16.212;2023-03-02T09:22:48;98148.84;;;9.18;43.15
15674;BME280;7937;48.090;16.212;2023-03-02T09:25:52;98142.66;;;9.24;42.70
15674;BME280;7937;48.090;16.212;2023-03-02T09:28:54;98116.00;;;9.13;44.15
15674;BME280;7937;48.090;16.212;2023-03-02T09:31:56;98140.94;;;9.30;42.75
15674;BME280;7937;48.090;16.212;2023-03-02T09:34:59;98140.06;;;9.18;42.67
15674;BME280;7937;48.090;16.212;2023-03-02T09:38:01;98133.47;;;9.20;43.19
15674;BME280;7937;48.090;16.212;2023-03-02T09:41:25;98141.66;;;9.00;43.30
15674;BME280;7937;48.090;16.212;2023-03-02T09:51:49;98085.06;;;9.18;43.84
15674;BME280;7937;48.090;16.212;2023-03-02T09:55:00;98128.13;;;9.75;43.10
15674;BME280;7937;48.090;16.212;2023-03-02T09:58:16;98117.78;;;9.97;42.08
15674;BME280;7937;48.090;16.212;2023-03-02T10:01:31;98126.47;;;10.04;41.95
15674;BME280;7937;48.090;16.212;2023-03-02T10:04:56;98127.28;;;10.35;41.04
15674;BME280;7937;48.090;16.212;2023-03-02T10:07:59;98115.47;;;10.43;40.95
15674;BME280;7937;48.090;16.212;2023-03-02T10:11:21;98115.94;;;10.51;40.53
15674;BME280;7937;48.090;16.212;2023-03-02T10:14:36;98107.28;;;10.79;39.82
15674;BME280;7937;48.090;16.212;2023-03-02T10:17:58;98115.47;;;11.01;39.48
15674;BME280;7937;48.090;16.212;2023-03-02T10:21:10;98113.59;;;11.25;38.48
15674;BME280;7937;48.090;16.212;2023-03-02T10:24:30;98117.56;;;11.63;38.29
15674;BME280;7937;48.090;16.212;2023-03-02T10:27:42;98110.31;;;11.75;38.01
15674;BME280;7937;48.090;16.212;2023-03-02T10:30:45;98112.41;;;11.73;37.48
15674;BME280;7937;48.090;16.212;2023-03-02T10:33:52;98102.94;;;11.94;36.93
15674;BME280;7937;48.090;16.212;2023-03-02T10:36:54;98104.50;;;12.24;36.54
15674;BME280;7937;48.090;16.212;2023-03-02T10:39:57;98107.13;;;12.52;36.03
15674;BME280;7937;48.090;16.212;2023-03-02T10:42:59;98104.41;;;12.69;35.86
15674;BME280;7937;48.090;16.212;2023-03-02T10:46:07;98102.00;;;12.68;35.56
15674;BME280;7937;48.090;16.212;2023-03-02T10:52:33;98047.78;;;12.33;35.64
15674;BME280;7937;48.090;16.212;2023-03-02T10:55:44;98093.97;;;12.68;35.68
15674;BME280;7937;48.090;16.212;2023-03-02T10:58:46;98096.63;;;12.84;35.78
15674;BME280;7937;48.090;16.212;2023-03-02T11:02:00;98068.28;;;12.83;35.00
15674;BME280;7937;48.090;16.212;2023-03-02T11:05:24;98077.69;;;12.69;35.32
15674;BME280;7937;48.090;16.212;2023-03-02T11:08:27;98085.41;;;12.49;35.63
15674;BME280;7937;48.090;16.212;2023-03-02T11:11:30;98080.63;;;12.34;36.43
15674;BME280;7937;48.090;16.212;2023-03-02T11:14:33;98078.34;;;12.59;36.17
15674;BME280;7937;48.090;16.212;2023-03-02T11:17:36;98086.53;;;12.36;36.38
15674;BME280;7937;48.090;16.212;2023-03-02T11:20:45;98058.94;;;12.30;36.33
15674;BME280;7937;48.090;16.212;2023-03-02T11:24:13;98067.03;;;12.19;36.51
15674;BME280;7937;48.090;16.212;2023-03-02T11:27:23;98077.38;;;12.15;36.92
15674;BME280;7937;48.090;16.212;2023-03-02T11:30:29;98052.94;;;11.90;37.02
15674;BME280;7937;48.090;16.212;2023-03-02T11:33:58;98081.03;;;11.80;37.15
15674;BME280;7937;48.090;16.212;2023-03-02T11:37:25;98074.59;;;11.36;38.15
15674;BME280;7937;48.090;16.212;2023-03-02T11:43:44;98075.78;;;11.57;38.63
15674;BME280;7937;48.090;16.212;2023-03-02T11:46:49;98064.50;;;11.38;38.22
15674;BME280;7937;48.090;16.212;2023-03-02T11:49:54;98063.41;;;11.51;37.89
15674;BME280;7937;48.090;16.212;2023-03-02T11:52:59;98011.16;;;11.09;37.44
15674;BME280;7937;48.090;16.212;2023-03-02T11:56:02;98057.25;;;11.50;37.28
15674;BME280;7937;48.090;16.212;2023-03-02T11:59:16;98059.88;;;11.62;36.46
15674;BME280;7937;48.090;16.212;2023-03-02T12:02:21;98006.66;;;11.27;35.63
15674;BME280;7937;48.090;16.212;2023-03-02T12:05:26;98048.00;;;11.41;36.00
15674;BME280;7937;48.090;16.212;2023-03-02T12:11:37;98040.53;;;11.55;35.73
15674;BME280;7937;48.090;16.212;2023-03-02T12:14:40;98039.59;;;11.61;35.84
15674;BME280;7937;48.090;16.212;2023-03-02T12:17:43;98029.41;;;11.75;35.62
15674;BME280;7937;48.090;16.212;2023-03-02T12:21:02;98028.63;;;11.74;33.58
15674;BME280;7937;48.090;16.212;2023-03-02T12:24:05;98029.66;;;11.73;33.55
15674;BME280;7937;48.090;16.212;2023-03-02T12:27:25;98019.19;;;11.55;31.39
15674;BME280;7937;48.090;16.212;2023-03-02T12:30:28;98021.94;;;11.60;31.52
15674;BME280;7937;48.090;16.212;2023-03-02T12:33:31;97987.97;;;11.39;32.14
15674;BME280;7937;48.090;16.212;2023-03-02T12:36:41;97966.22;;;11.47;32.28
15674;BME280;7937;48.090;16.212;2023-03-02T12:46:32;98003.25;;;11.88;31.53
15674;BME280;7937;48.090;16.212;2023-03-02T12:49:45;98004.00;;;11.72;31.01
15674;BME280;7937;48.090;16.212;2023-03-02T12:53:00;98003.91;;;11.67;31.37
15674;BME280;7937;48.090;16.212;2023-03-02T12:56:02;97993.25;;;11.67;31.35
15674;BME280;7937;48.090;16.212;2023-03-02T12:59:05;97975.38;;;11.51;31.85
15674;BME280;7937;48.090;16.212;2023-03-02T13:05:17;97981.28;;;11.53;33.57
15674;BME280;7937;48.090;16.212;2023-03-02T13:08:21;97983.00;;;11.30;31.87
15674;BME280;7937;48.090;16.212;2023-03-02T13:11:33;97960.84;;;11.01;33.35
15674;BME280;7937;48.090;16.212;2023-03-02T13:14:39;97975.91;;;11.07;33.02
15674;BME280;7937;48.090;16.212;2023-03-02T13:17:44;97980.91;;;11.04;31.78
15674;BME280;7937;48.090;16.212;2023-03-02T13:20:52;97969.66;;;11.02;31.68
15674;BME280;7937;48.090;16.212;2023-03-02T13:23:55;97968.00;;;11.13;31.58
15674;BME280;7937;48.090;16.212;2023-03-02T13:27:05;97966.72;;;11.15;32.23
15674;BME280;7937;48.090;16.212;2023-03-02T13:30:23;97937.47;;;11.03;32.79
15674;BME280;7937;48.090;16.212;2023-03-02T13:33:27;97957.13;;;11.31;33.47
15674;BME280;7937;48.090;16.212;2023-03-02T13:36:34;97922.94;;;11.28;32.94
15674;BME280;7937;48.090;16.212;2023-03-02T13:39:38;97901.03;;;11.09;33.30
15674;BME280;7937;48.090;16.212;2023-03-02T13:42:40;97948.25;;;11.25;33.71
15674;BME280;7937;48.090;16.212;2023-03-02T13:45:53;97942.19;;;11.01;33.59
15674;BME280;7937;48.090;16.212;2023-03-02T13:49:03;97938.78;;;10.89;33.36
15674;BME280;7937;48.090;16.212;2023-03-02T13:52:51;97939.78;;;11.00;33.11
15674;BME280;7937;48.090;16.212;2023-03-02T13:55:46;97899.88;;;10.76;33.14
15674;BME280;7937;48.090;16.212;2023-03-02T13:58:48;97934.19;;;11.01;33.00
15674;BME280;7937;48.090;16.212;2023-03-02T14:01:50;97936.06;;;11.01;32.22
15674;BME280;7937;48.090;16.212;2023-03-02T14:04:52;97928.63;;;10.74;32.80
15674;BME280;7937;48.090;16.212;2023-03-02T14:07:55;97882.50;;;10.45;32.87
15674;BME280;7937;48.090;16.212;2023-03-02T14:10:58;97893.47;;;10.49;33.15
15674;BME280;7937;48.090;16.212;2023-03-02T14:14:02;97922.59;;;10.27;33.96
15674;BME280;7937;48.090;16.212;2023-03-02T14:17:13;97927.78;;;10.33;34.09
15674;BME280;7937;48.090;16.212;2023-03-02T14:20:17;97928.34;;;10.47;33.68
15674;BME280;7937;48.090;16.212;2023-03-02T14:23:20;97926.63;;;10.29;33.82
15674;BME280;7937;48.090;16.212;2023-03-02T14:29:33;97890.16;;;10.06;34.83
15674;BME280;7937;48.090;16.212;2023-03-02T14:32:35;97917.13;;;10.10;34.71
15674;BME280;7937;48.090;16.212;2023-03-02T14:35:37;97918.63;;;9.82;35.22
15674;BME280;7937;48.090;16.212;2023-03-02T14:38:39;97914.38;;;9.81;35.47
15674;BME280;7937;48.090;16.212;2023-03-02T14:41:41;97912.63;;;9.87;35.36
15674;BME280;7937;48.090;16.212;2023-03-02T14:44:54;97909.84;;;9.82;36.34
15674;BME280;7937;48.090;16.212;2023-03-02T14:47:56;97904.78;;;9.80;36.10
15674;BME280;7937;48.090;16.212;2023-03-02T14:50:58;97914.56;;;9.80;36.66
15674;BME280;7937;48.090;16.212;2023-03-02T14:54:05;97909.38;;;9.73;36.23
15674;BME280;7937;48.090;16.212;2023-03-02T14:57:16;97904.06;;;9.62;36.15
15674;BME280;7937;48.090;16.212;2023-03-02T15:00:19;97906.22;;;9.53;36.12
15674;BME280;7937;48.090;16.212;2023-03-02T15:03:22;97903.69;;;9.46;36.57
15674;BME280;7937;48.090;16.212;2023-03-02T15:06:28;97893.00;;;9.35;36.64
15674;BME280;7937;48.090;16.212;2023-03-02T15:09:31;97903.19;;;9.38;36.55
15674;BME280;7937;48.090;16.212;2023-03-02T15:12:33;97846.03;;;9.05;36.33
15674;BME280;7937;48.090;16.212;2023-03-02T15:15:36;97866.06;;;9.19;37.52
15674;BME280;7937;48.090;16.212;2023-03-02T15:18:38;97851.47;;;9.10;37.20
15674;BME280;7937;48.090;16.212;2023-03-02T15:21:40;97886.19;;;9.27;37.37
15674;BME280;7937;48.090;16.212;2023-03-02T15:24:45;97897.28;;;9.24;37.03
15674;BME280;7937;48.090;16.212;2023-03-02T15:28:00;97894.25;;;9.20;37.37
15674;BME280;7937;48.090;16.212;2023-03-02T15:31:07;97895.53;;;9.18;37.75
15674;BME280;7937;48.090;16.212;2023-03-02T15:34:10;97891.69;;;9.14;37.70
15674;BME280;7937;48.090;16.212;2023-03-02T15:37:12;97892.63;;;9.08;38.21
15674;BME280;7937;48.090;16.212;2023-03-02T15:40:14;97898.47;;;8.98;38.51
15674;BME280;7937;48.090;16.212;2023-03-02T15:43:16;97894.66;;;8.94;38.45
15674;BME280;7937;48.090;16.212;2023-03-02T15:46:22;97891.28;;;8.87;37.23
15674;BME280;7937;48.090;16.212;2023-03-02T15:49:25;97897.94;;;8.77;39.78
15674;BME280;7937;48.090;16.212;2023-03-02T15:52:29;97896.56;;;8.57;40.80
15674;BME280;7937;48.090;16.212;2023-03-02T15:55:31;97893.84;;;8.45;40.62
15674;BME280;7937;48.090;16.212;2023-03-02T15:58:34;97894.03;;;8.25;42.88
15674;BME280;7937;48.090;16.212;2023-03-02T16:01:36;97896.03;;;8.11;43.08
15674;BME280;7937;48.090;16.212;2023-03-02T16:04:38;97898.59;;;7.99;42.77
15674;BME280;7937;48.090;16.212;2023-03-02T16:07:40;97899.75;;;7.85;43.34
15674;BME280;7937;48.090;16.212;2023-03-02T16:10:43;97884.09;;;7.59;43.53
15674;BME280;7937;48.090;16.212;2023-03-02T16:13:45;97902.75;;;7.45;45.09
15674;BME280;7937;48.090;16.212;2023-03-02T16:16:47;97896.97;;;7.30;44.99
15674;BME280;7937;48.090;16.212;2023-03-02T16:19:50;97895.22;;;7.17;45.61
15674;BME280;7937;48.090;16.212;2023-03-02T16:22:52;97905.53;;;7.01;46.21
15674;BME280;7937;48.090;16.212;2023-03-02T16:25:54;97866.44;;;6.58;47.18
15674;BME280;7937;48.090;16.212;2023-03-02T16:29:06;97900.44;;;6.61;47.31
15674;BME280;7937;48.090;16.212;2023-03-02T16:32:11;97884.91;;;6.26;48.21
15674;BME280;7937;48.090;16.212;2023-03-02T16:35:13;97904.66;;;6.24;48.37
15674;BME280;7937;48.090;16.212;2023-03-02T16:38:15;97912.41;;;6.05;48.86
15674;BME280;7937;48.090;16.212;2023-03-02T16:41:20;97910.22;;;5.82;49.57
15674;BME280;7937;48.090;16.212;2023-03-02T16:44:22;97909.59;;;5.60;50.27
15674;BME280;7937;48.090;16.212;2023-03-02T16:47:26;97916.91;;;5.45;50.48
15674;BME280;7937;48.090;16.212;2023-03-02T16:50:28;97915.91;;;5.33;50.26
15674;BME280;7937;48.090;16.212;2023-03-02T16:53:31;97923.00;;;5.19;50.41
15674;BME280;7937;48.090;16.212;2023-03-02T16:56:33;97921.16;;;5.00;51.24
15674;BME280;7937;48.090;16.212;2023-03-02T16:59:36;97926.59;;;4.78;51.63
15674;BME280;7937;48.090;16.212;2023-03-02T17:02:38;97922.28;;;4.64;52.26
15674;BME280;7937;48.090;16.212;2023-03-02T17:05:41;97942.88;;;4.47;52.74
15674;BME280;7937;48.090;16.212;2023-03-02T17:08:44;97932.06;;;4.29;52.91